sensor_id;sensor_type;location;lat;lon;timestamp;pressure;altitude;pressure_sealevel;temperature;humidity
3590;BME280;1809;48.470;9.226;2023-04-26T00:00:16;156232.75;;;6.07;100.00
3590;BME280;1809;48.470;9.226;2023-04-26T00:02:42;156243.19;;;6.11;100.00
3590;BME280;1809;48.470;9.226;2023-04-26T00:05:07;156222.38;;;6.03;100.00
3590;BME280;1809;48.470;9.226;2023-04-26T00:07:33;156209.31;;;5.98;100.00
3590;BME280;1809;48.470;9.226;2023-04-26T00:10:00;156227.56;;;6.05;100.00
3590;BME280;1809;48.470;9.226;2023-04-26T00:12:25;156223.69;;;6.04;100.00
3590;BME280;1809;48.470;9.226;2023-04-26T00:14:51;156211.94;;;5.99;100.00
3590;BME280;1809;48.470;9.226;2023-04-26T00:17:16;156214.56;;;6.00;100.00
3590;BME280;1809;48.470;9.226;2023-04-26T00:19:42;156198.94;;;5.94;100.00
3590;BME280;1809;48.470;9.226;2023-04-26T00:22:07;156204.13;;;5.96;100.00
3590;BME280;1809;48.470;9.226;2023-04-26T00:24:33;156201.50;;;5.95;100.00
3590;BME280;1809;48.470;9.226;2023-04-26T00:26:59;156196.31;;;5.93;100.00
3590;BME280;1809;48.470;9.226;2023-04-26T00:29:25;156180.69;;;5.87;100.00
3590;BME280;1809;48.470;9.226;2023-04-26T00:31:51;156172.84;;;5.84;100.00
3590;BME280;1809;48.470;9.226;2023-04-26T00:34:16;156162.41;;;5.80;100.00
3590;BME280;1809;48.470;9.226;2023-04-26T00:36:41;156157.22;;;5.78;100.00
3590;BME280;1809;48.470;9.226;2023-04-26T00:39:07;156139.00;;;5.71;100.00
3590;BME280;1809;48.470;9.226;2023-04-26T00:41:33;156146.78;;;5.74;100.00
3590;BME280;1809;48.470;9.226;2023-04-26T00:43:58;156123.38;;;5.65;100.00
3590;BME280;1809;48.470;9.226;2023-04-26T00:46:24;156086.94;;;5.51;100.00
3590;BME280;1809;48.470;9.226;2023-04-26T00:48:50;156060.91;;;5.40;100.00
3590;BME280;1809;48.470;9.226;2023-04-26T00:51:15;156040.06;;;5.32;100.00
3590;BME280;1809;48.470;9.226;2023-04-26T00:53:41;156040.06;;;5.32;100.00
3590;BME280;1809;48.470;9.226;2023-04-26T00:56:08;156032.25;;;5.29;100.00
3590;BME280;1809;48.470;9.226;2023-04-26T00:58:35;156024.44;;;5.26;100.00
3590;BME280;1809;48.470;9.226;2023-04-26T01:01:01;156016.63;;;5.23;100.00
3590;BME280;1809;48.470;9.226;2023-04-26T01:03:26;156008.81;;;5.20;100.00
3590;BME280;1809;48.470;9.226;2023-04-26T01:05:52;155995.84;;;5.15;100.00
3590;BME280;1809;48.470;9.226;2023-04-26T01:08:18;155995.84;;;5.15;100.00
3590;BME280;1809;48.470;9.226;2023-04-26T01:10:49;155973.59;;;5.08;100.00
3590;BME280;1809;48.470;9.226;2023-04-26T01:13:15;155959.28;;;5.02;100.00
3590;BME280;1809;48.470;9.226;2023-04-26T01:15:45;155972.34;;;5.07;100.00
3590;BME280;1809;48.470;9.226;2023-04-26T01:18:11;155955.41;;;5.01;100.00
3590;BME280;1809;48.470;9.226;2023-04-26T01:20:38;155956.72;;;5.01;100.00
3590;BME280;1809;48.470;9.226;2023-04-26T01:23:03;155954.13;;;5.00;100.00
3590;BME280;1809;48.470;9.226;2023-04-26T01:25:29;155947.63;;;4.98;100.00
3590;BME280;1809;48.470;9.226;2023-04-26T01:27:54;155943.69;;;4.96;100.00
3590;BME280;1809;48.470;9.226;2023-04-26T01:30:20;155956.72;;;5.01;100.00
3590;BME280;1809;48.470;9.226;2023-04-26T01:32:45;155961.91;;;5.03;100.00
3590;BME280;1809;48.470;9.226;2023-04-26T01:35:10;155945.00;;;4.97;100.00
3590;BME280;1809;48.470;9.226;2023-04-26T01:37:36;155568.94;;;4.84;100.00
3590;BME280;1809;48.470;9.226;2023-04-26T01:40:02;155562.47;;;4.82;100.00
3590;BME280;1809;48.470;9.226;2023-04-26T01:42:30;155920.28;;;4.87;100.00
3590;BME280;1809;48.470;9.226;2023-04-26T01:44:56;155575.44;;;4.87;100.00
3590;BME280;1809;48.470;9.226;2023-04-26T01:47:21;155559.84;;;4.81;100.00
3590;BME280;1809;48.470;9.226;2023-04-26T01:49:46;155557.25;;;4.80;100.00
3590;BME280;1809;48.470;9.226;2023-04-26T01:52:12;155199.53;;;4.75;100.00
3590;BME280;1809;48.470;9.226;2023-04-26T01:54:37;155559.84;;;4.81;100.00
3590;BME280;1809;48.470;9.226;2023-04-26T01:57:02;155209.94;;;4.79;100.00
3590;BME280;1809;48.470;9.226;2023-04-26T01:59:28;155549.47;;;4.77;100.00
3590;BME280;1809;48.470;9.226;2023-04-26T02:01:54;155177.53;;;4.66;100.00
3590;BME280;1809;48.470;9.226;2023-04-26T02:04:19;154825.16;;;4.63;100.00
3590;BME280;1809;48.470;9.226;2023-04-26T02:06:44;154803.16;;;4.55;100.00
3590;BME280;1809;48.470;9.226;2023-04-26T02:09:10;154440.59;;;4.48;100.00
3590;BME280;1809;48.470;9.226;2023-04-26T02:11:35;154080.66;;;4.42;100.00
3590;BME280;1809;48.470;9.226;2023-04-26T02:14:00;153376.53;;;4.36;100.00
3590;BME280;1809;48.470;9.226;2023-04-26T02:16:26;153019.41;;;4.30;100.00
3590;BME280;1809;48.470;9.226;2023-04-26T02:18:51;153016.91;;;4.29;100.00
3590;BME280;1809;48.470;9.226;2023-04-26T02:21:20;153014.31;;;4.28;100.00
3590;BME280;1809;48.470;9.226;2023-04-26T02:23:46;152659.88;;;4.24;100.00
3590;BME280;1809;48.470;9.226;2023-04-26T02:26:12;152647.16;;;4.19;100.00
3590;BME280;1809;48.470;9.226;2023-04-26T02:28:38;152295.41;;;4.16;100.00
3590;BME280;1809;48.470;9.226;2023-04-26T02:31:03;152300.47;;;4.18;100.00
3590;BME280;1809;48.470;9.226;2023-04-26T02:33:29;152287.78;;;4.13;100.00
3590;BME280;1809;48.470;9.226;2023-04-26T02:35:54;151927.19;;;4.07;100.00
3590;BME280;1809;48.470;9.226;2023-04-26T02:38:20;151918.31;;;4.03;100.00
3590;BME280;1809;48.470;9.226;2023-04-26T02:40:45;151555.34;;;3.96;100.00
3590;BME280;1809;48.470;9.226;2023-04-26T02:43:10;151531.31;;;3.86;100.00
3590;BME280;1809;48.470;9.226;2023-04-26T02:45:42;151531.31;;;3.86;100.00
3590;BME280;1809;48.470;9.226;2023-04-26T02:48:08;151179.88;;;3.83;100.00
3590;BME280;1809;48.470;9.226;2023-04-26T02:50:33;151157.19;;;3.74;100.00
3590;BME280;1809;48.470;9.226;2023-04-26T02:52:59;150794.59;;;3.66;100.00
3590;BME280;1809;48.470;9.226;2023-04-26T02:55:24;150763.13;;;3.54;100.00
3590;BME280;1809;48.470;9.226;2023-04-26T02:57:50;150415.72;;;3.52;100.00
3590;BME280;1809;48.470;9.226;2023-04-26T03:00:15;150424.53;;;3.56;100.00
3590;BME280;1809;48.470;9.226;2023-04-26T03:02:41;150073.44;;;3.53;100.00
3590;BME280;1809;48.470;9.226;2023-04-26T03:05:06;150432.06;;;3.59;100.00
3590;BME280;1809;48.470;9.226;2023-04-26T03:07:33;150088.47;;;3.59;100.00
3590;BME280;1809;48.470;9.226;2023-04-26T03:09:59;150090.97;;;3.60;100.00
3590;BME280;1809;48.470;9.226;2023-04-26T03:12:25;150090.97;;;3.60;100.00
3590;BME280;1809;48.470;9.226;2023-04-26T03:14:50;150073.44;;;3.53;100.00
3590;BME280;1809;48.470;9.226;2023-04-26T03:17:16;150080.94;;;3.56;100.00
3590;BME280;1809;48.470;9.226;2023-04-26T03:19:41;144236.66;;;3.52;100.00
3590;BME280;1809;48.470;9.226;2023-04-26T03:22:06;143881.72;;;3.47;100.00
3590;BME280;1809;48.470;9.226;2023-04-26T03:24:32;143876.94;;;3.45;100.00
3590;BME280;1809;48.470;9.226;2023-04-26T03:26:57;143514.84;;;3.37;100.00
3590;BME280;1809;48.470;9.226;2023-04-26T03:29:22;143520.84;;;3.40;100.00
3590;BME280;1809;48.470;9.226;2023-04-26T03:31:47;143524.44;;;3.41;100.00
3590;BME280;1809;48.470;9.226;2023-04-26T03:34:13;143516.06;;;3.38;100.00
3590;BME280;1809;48.470;9.226;2023-04-26T03:36:38;143166.09;;;3.35;100.00
3590;BME280;1809;48.470;9.226;2023-04-26T03:39:04;143160.13;;;3.32;100.00
3590;BME280;1809;48.470;9.226;2023-04-26T03:41:30;142806.66;;;3.28;100.00
3590;BME280;1809;48.470;9.226;2023-04-26T03:43:57;142792.38;;;3.21;100.00
3590;BME280;1809;48.470;9.226;2023-04-26T03:46:22;142423.59;;;3.10;100.00
3590;BME280;1809;48.470;9.226;2023-04-26T03:48:47;142062.06;;;3.02;100.00
3590;BME280;1809;48.470;9.226;2023-04-26T03:51:13;142058.53;;;3.01;100.00
3590;BME280;1809;48.470;9.226;2023-04-26T03:53:38;142054.97;;;2.99;100.00
3590;BME280;1809;48.470;9.226;2023-04-26T03:56:04;142056.16;;;3.00;100.00
3590;BME280;1809;48.470;9.226;2023-04-26T03:58:29;142422.41;;;3.10;100.00
3590;BME280;1809;48.470;9.226;2023-04-26T04:00:57;142418.81;;;3.08;100.00
3590;BME280;1809;48.470;9.226;2023-04-26T04:03:23;142076.28;;;3.08;100.00
3590;BME280;1809;48.470;9.226;2023-04-26T04:05:49;142059.72;;;3.01;100.00
3590;BME280;1809;48.470;9.226;2023-04-26T04:08:14;142057.34;;;3.00;100.00
3590;BME280;1809;48.470;9.226;2023-04-26T04:10:40;141705.41;;;2.96;100.00
3590;BME280;1809;48.470;9.226;2023-04-26T04:13:06;141703.09;;;2.95;100.00
3590;BME280;1809;48.470;9.226;2023-04-26T04:15:32;141698.34;;;2.93;100.00
3590;BME280;1809;48.470;9.226;2023-04-26T04:17:57;141717.25;;;3.01;100.00
3590;BME280;1809;48.470;9.226;2023-04-26T04:20:22;141738.53;;;3.10;100.00
3590;BME280;1809;48.470;9.226;2023-04-26T04:22:48;142104.75;;;3.20;100.00
3590;BME280;1809;48.470;9.226;2023-04-26T04:25:13;142121.28;;;3.28;100.00
3590;BME280;1809;48.470;9.226;2023-04-26T04:27:39;142104.75;;;3.20;100.00
3590;BME280;1809;48.470;9.226;2023-04-26T04:30:07;142473.47;;;3.32;100.00
3590;BME280;1809;48.470;9.226;2023-04-26T04:32:36;142480.59;;;3.35;100.00
3590;BME280;1809;48.470;9.226;2023-04-26T04:35:04;142837.59;;;3.41;100.00
3590;BME280;1809;48.470;9.226;2023-04-26T04:37:29;142481.78;;;3.35;100.00
3590;BME280;1809;48.470;9.226;2023-04-26T04:39:57;142475.84;;;3.33;100.00
3590;BME280;1809;48.470;9.226;2023-04-26T04:42:22;142478.19;;;3.34;100.00
3590;BME280;1809;48.470;9.226;2023-04-26T04:44:47;142478.19;;;3.34;100.00
3590;BME280;1809;48.470;9.226;2023-04-26T04:47:14;142490.09;;;3.39;100.00
3590;BME280;1809;48.470;9.226;2023-04-26T04:49:40;142862.63;;;3.51;100.00
3590;BME280;1809;48.470;9.226;2023-04-26T04:52:05;142843.53;;;3.43;100.00
3590;BME280;1809;48.470;9.226;2023-04-26T04:54:31;143189.97;;;3.45;100.00
3590;BME280;1809;48.470;9.226;2023-04-26T04:56:57;143203.09;;;3.50;100.00
3590;BME280;1809;48.470;9.226;2023-04-26T04:59:22;143591.44;;;3.69;100.00
3590;BME280;1809;48.470;9.226;2023-04-26T05:01:49;143933.28;;;3.69;100.00
3590;BME280;1809;48.470;9.226;2023-04-26T05:04:14;144319.63;;;3.87;100.00
3590;BME280;1809;48.470;9.226;2023-04-26T05:06:40;145053.22;;;4.07;100.00
3590;BME280;1809;48.470;9.226;2023-04-26T05:09:06;145440.22;;;4.25;100.00
3590;BME280;1809;48.470;9.226;2023-04-26T05:11:31;146179.66;;;4.47;100.00
3590;BME280;1809;48.470;9.226;2023-04-26T05:13:57;145806.84;;;4.34;100.00
3590;BME280;1809;48.470;9.226;2023-04-26T05:16:22;146171.13;;;4.43;100.00
3590;BME280;1809;48.470;9.226;2023-04-26T05:18:48;146503.88;;;4.39;100.00
3590;BME280;1809;48.470;9.226;2023-04-26T05:21:13;146498.97;;;4.37;100.00
3590;BME280;1809;48.470;9.226;2023-04-26T05:23:38;146529.47;;;4.49;100.00
3590;BME280;1809;48.470;9.226;2023-04-26T05:26:04;146530.72;;;4.50;100.00
3590;BME280;1809;48.470;9.226;2023-04-26T05:28:30;146524.63;;;4.47;100.00
3590;BME280;1809;48.470;9.226;2023-04-26T05:30:55;146547.81;;;4.57;100.00
3590;BME280;1809;48.470;9.226;2023-04-26T05:33:21;146906.31;;;4.63;100.00
3590;BME280;1809;48.470;9.226;2023-04-26T05:35:47;147291.88;;;4.80;100.00
3590;BME280;1809;48.470;9.226;2023-04-26T05:38:12;146913.66;;;4.66;100.00
3590;BME280;1809;48.470;9.226;2023-04-26T05:40:37;146913.66;;;4.66;100.00
3590;BME280;1809;48.470;9.226;2023-04-26T05:43:02;147694.97;;;5.04;100.00
3590;BME280;1809;48.470;9.226;2023-04-26T05:45:28;148073.66;;;5.18;100.00
3590;BME280;1809;48.470;9.226;2023-04-26T05:47:53;148472.38;;;5.40;100.00
3590;BME280;1809;48.470;9.226;2023-04-26T05:50:18;148831.72;;;5.47;100.00
3590;BME280;1809;48.470;9.226;2023-04-26T05:52:44;149235.88;;;5.71;100.00
3590;BME280;1809;48.470;9.226;2023-04-26T05:55:09;149254.53;;;5.78;100.00
3590;BME280;1809;48.470;9.226;2023-04-26T05:57:35;149637.94;;;5.94;100.00
3590;BME280;1809;48.470;9.226;2023-04-26T06:00:02;150442.91;;;6.40;100.00
3590;BME280;1809;48.470;9.226;2023-04-26T06:02:32;149701.47;;;6.20;100.00
3590;BME280;1809;48.470;9.226;2023-04-26T06:04:57;149366.44;;;6.24;100.00
3590;BME280;1809;48.470;9.226;2023-04-26T06:07:23;149032.63;;;6.28;100.00
3590;BME280;1809;48.470;9.226;2023-04-26T06:09:49;148363.69;;;6.37;100.00
3590;BME280;1809;48.470;9.226;2023-04-26T06:12:15;148456.31;;;6.75;100.00
3590;BME280;1809;48.470;9.226;2023-04-26T06:14:41;147078.19;;;6.76;100.00
3590;BME280;1809;48.470;9.226;2023-04-26T06:17:06;146108.75;;;7.03;100.00
3590;BME280;1809;48.470;9.226;2023-04-26T06:19:33;144067.31;;;7.15;100.00
3590;BME280;1809;48.470;9.226;2023-04-26T06:22:01;142432.59;;;7.53;100.00
3590;BME280;1809;48.470;9.226;2023-04-26T06:24:27;138273.69;;;7.44;100.00
3590;BME280;1809;48.470;9.226;2023-04-26T06:26:52;133159.22;;;7.68;100.00
3590;BME280;1809;48.470;9.226;2023-04-26T06:29:19;124625.66;;;7.98;100.00
3590;BME280;1809;48.470;9.226;2023-04-26T06:31:45;114968.88;;;9.54;100.00
3590;BME280;1809;48.470;9.226;2023-04-26T06:34:11;87152.44;;;11.22;100.00
3590;BME280;1809;48.470;9.226;2023-04-26T06:36:36;-7401.47;;;12.25;100.00
3590;BME280;1809;48.470;9.226;2023-04-26T06:39:02;-16541.88;;;13.38;100.00
3590;BME280;1809;48.470;9.226;2023-04-26T06:41:28;-16530.22;;;12.97;100.00
3590;BME280;1809;48.470;9.226;2023-04-26T06:43:56;-16579.59;;;14.74;100.00
3590;BME280;1809;48.470;9.226;2023-04-26T06:46:22;-16588.16;;;15.05;100.00
3590;BME280;1809;48.470;9.226;2023-04-26T06:48:47;-16594.88;;;15.29;100.00
3590;BME280;1809;48.470;9.226;2023-04-26T06:51:13;-16594.16;;;15.27;100.00
3590;BME280;1809;48.470;9.226;2023-04-26T06:53:39;-16615.75;;;16.04;100.00
3590;BME280;1809;48.470;9.226;2023-04-26T06:56:05;-16624.28;;;16.35;100.00
3590;BME280;1809;48.470;9.226;2023-04-26T06:58:31;-16601.88;;;15.54;100.00
3590;BME280;1809;48.470;9.226;2023-04-26T07:00:57;-16591.66;;;15.18;100.00
3590;BME280;1809;48.470;9.226;2023-04-26T07:03:22;-16582.81;;;14.86;100.00
3590;BME280;1809;48.470;9.226;2023-04-26T07:05:48;-16559.97;;;14.04;100.00
3590;BME280;1809;48.470;9.226;2023-04-26T07:08:14;-16534.72;;;13.13;100.00
3590;BME280;1809;48.470;9.226;2023-04-26T07:10:40;-16516.19;;;12.46;100.00
3590;BME280;1809;48.470;9.226;2023-04-26T07:13:08;-16498.50;;;11.82;100.00
3590;BME280;1809;48.470;9.226;2023-04-26T07:15:34;-16477.16;;;11.06;100.00
3590;BME280;1809;48.470;9.226;2023-04-26T07:18:00;-16461.72;;;10.50;100.00
3590;BME280;1809;48.470;9.226;2023-04-26T07:20:26;-16456.66;;;10.32;100.00
3590;BME280;1809;48.470;9.226;2023-04-26T07:22:51;-16461.72;;;10.50;100.00
3590;BME280;1809;48.470;9.226;2023-04-26T07:25:17;-16475.75;;;11.01;100.00
3590;BME280;1809;48.470;9.226;2023-04-26T07:27:42;-16480.53;;;11.18;100.00
3590;BME280;1809;48.470;9.226;2023-04-26T07:30:08;-16482.78;;;11.26;100.00
3590;BME280;1809;48.470;9.226;2023-04-26T07:32:35;-16489.66;;;11.51;100.00
3590;BME280;1809;48.470;9.226;2023-04-26T07:35:04;-16481.66;;;11.22;100.00
3590;BME280;1809;48.470;9.226;2023-04-26T07:37:30;-16466.50;;;10.67;100.00
3590;BME280;1809;48.470;9.226;2023-04-26T07:39:55;-16476.31;;;11.03;100.00
3590;BME280;1809;48.470;9.226;2023-04-26T07:42:20;-16460.03;;;10.44;100.00
3590;BME280;1809;48.470;9.226;2023-04-26T07:44:49;-16468.88;;;10.76;100.00
3590;BME280;1809;48.470;9.226;2023-04-26T07:47:14;-16479.97;;;11.16;100.00
3590;BME280;1809;48.470;9.226;2023-04-26T07:49:40;-16481.94;;;11.23;100.00
3590;BME280;1809;48.470;9.226;2023-04-26T07:52:07;-16479.13;;;11.13;100.00
3590;BME280;1809;48.470;9.226;2023-04-26T07:54:33;-16475.47;;;11.00;100.00
3590;BME280;1809;48.470;9.226;2023-04-26T07:56:58;-16474.06;;;10.95;100.00
3590;BME280;1809;48.470;9.226;2023-04-26T07:59:24;-16464.66;;;10.61;100.00
3590;BME280;1809;48.470;9.226;2023-04-26T08:01:50;-16472.38;;;10.89;100.00
3590;BME280;1809;48.470;9.226;2023-04-26T08:04:23;-16475.47;;;11.00;100.00
3590;BME280;1809;48.470;9.226;2023-04-26T08:06:54;-16469.16;;;10.77;100.00
3590;BME280;1809;48.470;9.226;2023-04-26T08:09:20;-16466.63;;;10.68;100.00
3590;BME280;1809;48.470;9.226;2023-04-26T08:11:46;-16465.66;;;10.64;100.00
3590;BME280;1809;48.470;9.226;2023-04-26T08:14:11;-16462.69;;;10.54;100.00
3590;BME280;1809;48.470;9.226;2023-04-26T08:16:37;-16460.16;;;10.45;100.00
3590;BME280;1809;48.470;9.226;2023-04-26T08:19:03;-16455.38;;;10.27;100.00
3590;BME280;1809;48.470;9.226;2023-04-26T08:21:28;-16454.97;;;10.26;100.00
3590;BME280;1809;48.470;9.226;2023-04-26T08:23:54;-16466.22;;;10.66;100.00
3590;BME280;1809;48.470;9.226;2023-04-26T08:26:19;-16477.72;;;11.08;100.00
3590;BME280;1809;48.470;9.226;2023-04-26T08:28:45;-16487.97;;;11.45;100.00
3590;BME280;1809;48.470;9.226;2023-04-26T08:31:10;-16486.56;;;11.40;100.00
3590;BME280;1809;48.470;9.226;2023-04-26T08:33:36;-16494.28;;;11.67;100.00
3590;BME280;1809;48.470;9.226;2023-04-26T08:36:01;-16508.91;;;12.20;100.00
3590;BME280;1809;48.470;9.226;2023-04-26T08:38:27;-16528.81;;;12.91;100.00
3590;BME280;1809;48.470;9.226;2023-04-26T08:40:54;-16526.84;;;12.84;100.00
3590;BME280;1809;48.470;9.226;2023-04-26T08:43:23;-16514.38;;;12.39;100.00
3590;BME280;1809;48.470;9.226;2023-04-26T08:45:49;-16515.34;;;12.43;100.00
3590;BME280;1809;48.470;9.226;2023-04-26T08:48:16;-16509.16;;;12.21;100.00
3590;BME280;1809;48.470;9.226;2023-04-26T08:50:43;-16505.66;;;12.08;100.00
3590;BME280;1809;48.470;9.226;2023-04-26T08:53:13;-16510.44;;;12.25;100.00
3590;BME280;1809;48.470;9.226;2023-04-26T08:55:42;-16493.44;;;11.64;100.00
3590;BME280;1809;48.470;9.226;2023-04-26T08:58:11;-16486.44;;;11.39;100.00
3590;BME280;1809;48.470;9.226;2023-04-26T09:00:37;-16489.81;;;11.51;100.00
3590;BME280;1809;48.470;9.226;2023-04-26T09:03:02;-16499.91;;;11.88;100.00
3590;BME280;1809;48.470;9.226;2023-04-26T09:05:28;-16508.34;;;12.18;100.00
3590;BME280;1809;48.470;9.226;2023-04-26T09:08:00;-16507.34;;;12.14;100.00
3590;BME280;1809;48.470;9.226;2023-04-26T09:10:29;-16504.13;;;12.03;100.00
3590;BME280;1809;48.470;9.226;2023-04-26T09:12:56;-16503.56;;;12.01;100.00
3590;BME280;1809;48.470;9.226;2023-04-26T09:15:23;-16509.44;;;12.22;100.00
3590;BME280;1809;48.470;9.226;2023-04-26T09:17:50;-16521.53;;;12.65;100.00
3590;BME280;1809;48.470;9.226;2023-04-26T09:20:28;-16521.25;;;12.64;100.00
3590;BME280;1809;48.470;9.226;2023-04-26T09:23:07;-16516.75;;;12.48;100.00
3590;BME280;1809;48.470;9.226;2023-04-26T09:25:33;-16508.06;;;12.17;100.00
3590;BME280;1809;48.470;9.226;2023-04-26T09:27:59;-16512.25;;;12.32;100.00
3590;BME280;1809;48.470;9.226;2023-04-26T09:30:26;-16511.84;;;12.30;100.00
3590;BME280;1809;48.470;9.226;2023-04-26T09:33:02;-16515.22;;;12.43;100.00
3590;BME280;1809;48.470;9.226;2023-04-26T09:35:36;-16528.81;;;12.91;100.00
3590;BME280;1809;48.470;9.226;2023-04-26T09:38:09;-16526.00;;;12.81;100.00
3590;BME280;1809;48.470;9.226;2023-04-26T09:40:46;-16545.25;;;13.51;100.00
3590;BME280;1809;48.470;9.226;2023-04-26T09:43:16;-16543.69;;;13.45;100.00
3590;BME280;1809;48.470;9.226;2023-04-26T09:50:46;-16538.78;;;13.27;100.00
3590;BME280;1809;48.470;9.226;2023-04-26T09:53:27;-16539.75;;;13.31;100.00
3590;BME280;1809;48.470;9.226;2023-04-26T09:56:04;-16532.75;;;13.06;100.00
3590;BME280;1809;48.470;9.226;2023-04-26T09:58:31;-16530.22;;;12.97;100.00
3590;BME280;1809;48.470;9.226;2023-04-26T10:00:57;-16534.28;;;13.11;100.00
3590;BME280;1809;48.470;9.226;2023-04-26T10:03:23;-16526.28;;;12.82;100.00
3590;BME280;1809;48.470;9.226;2023-04-26T10:05:48;-16522.22;;;12.68;100.00
3590;BME280;1809;48.470;9.226;2023-04-26T10:08:14;-16527.97;;;12.88;100.00
3590;BME280;1809;48.470;9.226;2023-04-26T10:10:41;-16529.81;;;12.95;100.00
3590;BME280;1809;48.470;9.226;2023-04-26T10:13:07;-16540.75;;;13.34;100.00
3590;BME280;1809;48.470;9.226;2023-04-26T10:15:33;-16549.59;;;13.66;100.00
3590;BME280;1809;48.470;9.226;2023-04-26T10:17:59;-16540.88;;;13.35;100.00
3590;BME280;1809;48.470;9.226;2023-04-26T10:20:27;-16525.44;;;12.79;100.00
3590;BME280;1809;48.470;9.226;2023-04-26T10:22:55;-16526.00;;;12.81;100.00
3590;BME280;1809;48.470;9.226;2023-04-26T10:25:39;-16522.66;;;12.69;100.00
3590;BME280;1809;48.470;9.226;2023-04-26T10:28:06;-16529.09;;;12.92;100.00
3590;BME280;1809;48.470;9.226;2023-04-26T10:30:31;-16542.56;;;13.41;100.00
3590;BME280;1809;48.470;9.226;2023-04-26T10:35:26;-16540.59;;;13.34;100.00
3590;BME280;1809;48.470;9.226;2023-04-26T10:40:39;-16544.53;;;13.48;100.00
3590;BME280;1809;48.470;9.226;2023-04-26T10:45:38;-16558.84;;;13.99;100.00
3590;BME280;1809;48.470;9.226;2023-04-26T10:51:08;-16569.50;;;14.38;100.00
3590;BME280;1809;48.470;9.226;2023-04-26T11:01:34;-16564.88;;;14.21;100.00
3590;BME280;1809;48.470;9.226;2023-04-26T11:06:25;-16583.25;;;14.87;100.00
3590;BME280;1809;48.470;9.226;2023-04-26T11:08:52;-16572.72;;;14.49;100.00
3590;BME280;1809;48.470;9.226;2023-04-26T11:11:18;-16568.25;;;14.33;100.00
3590;BME280;1809;48.470;9.226;2023-04-26T11:13:44;-16564.03;;;14.18;100.00
3590;BME280;1809;48.470;9.226;2023-04-26T11:16:14;-16563.59;;;14.17;100.00
3590;BME280;1809;48.470;9.226;2023-04-26T11:18:41;-16563.59;;;14.17;100.00
3590;BME280;1809;48.470;9.226;2023-04-26T11:21:08;-16568.38;;;14.34;100.00
3590;BME280;1809;48.470;9.226;2023-04-26T11:23:34;-16569.63;;;14.38;100.00
3590;BME280;1809;48.470;9.226;2023-04-26T11:26:01;-16574.41;;;14.56;100.00
3590;BME280;1809;48.470;9.226;2023-04-26T11:28:28;-16573.72;;;14.53;100.00
3590;BME280;1809;48.470;9.226;2023-04-26T11:30:54;-16566.00;;;14.25;100.00
3590;BME280;1809;48.470;9.226;2023-04-26T11:33:20;-16569.78;;;14.39;100.00
3590;BME280;1809;48.470;9.226;2023-04-26T11:35:50;-16587.16;;;15.01;100.00
3590;BME280;1809;48.470;9.226;2023-04-26T11:38:16;-16587.16;;;15.01;99.24
3590;BME280;1809;48.470;9.226;2023-04-26T11:40:42;-16600.34;;;15.49;99.22
3590;BME280;1809;48.470;9.226;2023-04-26T11:43:09;-16584.63;;;14.92;94.56
3590;BME280;1809;48.470;9.226;2023-04-26T11:45:36;-16595.00;;;15.30;94.06
3590;BME280;1809;48.470;9.226;2023-04-26T11:48:06;-16593.63;;;15.25;93.84
3590;BME280;1809;48.470;9.226;2023-04-26T11:50:33;-16604.25;;;15.63;100.00
3590;BME280;1809;48.470;9.226;2023-04-26T11:53:00;-16594.88;;;15.29;87.92
3590;BME280;1809;48.470;9.226;2023-04-26T11:55:28;-16588.84;;;15.07;89.34
3590;BME280;1809;48.470;9.226;2023-04-26T11:57:55;-16587.03;;;15.01;91.26
3590;BME280;1809;48.470;9.226;2023-04-26T12:00:21;-16578.75;;;14.71;96.20
3590;BME280;1809;48.470;9.226;2023-04-26T12:02:47;-16573.97;;;14.54;96.05
3590;BME280;1809;48.470;9.226;2023-04-26T12:05:40;-16578.91;;;14.72;92.86
3590;BME280;1809;48.470;9.226;2023-04-26T12:08:05;-16581.28;;;14.80;96.04
3590;BME280;1809;48.470;9.226;2023-04-26T12:10:36;-16592.06;;;15.19;90.96
3590;BME280;1809;48.470;9.226;2023-04-26T12:13:01;-16594.59;;;15.28;93.76
3590;BME280;1809;48.470;9.226;2023-04-26T12:15:31;-16590.09;;;15.12;88.79
3590;BME280;1809;48.470;9.226;2023-04-26T12:18:07;-16593.47;;;15.24;89.03
3590;BME280;1809;48.470;9.226;2023-04-26T12:20:34;-16595.56;;;15.32;95.87
3590;BME280;1809;48.470;9.226;2023-04-26T12:23:13;-16609.03;;;15.80;89.70
3590;BME280;1809;48.470;9.226;2023-04-26T12:25:40;-16599.22;;;15.45;90.68
3590;BME280;1809;48.470;9.226;2023-04-26T12:28:09;-16604.53;;;15.64;85.24
3590;BME280;1809;48.470;9.226;2023-04-26T12:30:37;-16606.94;;;15.73;90.06
3590;BME280;1809;48.470;9.226;2023-04-26T12:33:03;-16615.19;;;16.02;81.50
3590;BME280;1809;48.470;9.226;2023-04-26T12:35:29;-16600.91;;;15.51;83.92
3590;BME280;1809;48.470;9.226;2023-04-26T12:37:55;-16600.19;;;15.48;88.68
3590;BME280;1809;48.470;9.226;2023-04-26T12:40:22;-16600.19;;;15.48;85.82
3590;BME280;1809;48.470;9.226;2023-04-26T12:42:47;-16597.69;;;15.39;85.95
3590;BME280;1809;48.470;9.226;2023-04-26T12:45:14;-16585.63;;;14.96;88.63
3590;BME280;1809;48.470;9.226;2023-04-26T12:47:39;-16586.88;;;15.00;91.59
3590;BME280;1809;48.470;9.226;2023-04-26T12:50:05;-16588.00;;;15.04;91.76
3590;BME280;1809;48.470;9.226;2023-04-26T12:52:31;-16591.78;;;15.18;90.13
3590;BME280;1809;48.470;9.226;2023-04-26T12:54:57;-16593.88;;;15.26;90.77
3590;BME280;1809;48.470;9.226;2023-04-26T12:57:22;-16578.75;;;14.71;91.78
3590;BME280;1809;48.470;9.226;2023-04-26T12:59:48;-16571.75;;;14.46;95.23
3590;BME280;1809;48.470;9.226;2023-04-26T13:02:13;-16581.56;;;14.81;96.14
3590;BME280;1809;48.470;9.226;2023-04-26T13:04:39;-16586.88;;;15.00;94.18
3590;BME280;1809;48.470;9.226;2023-04-26T13:07:04;-16572.03;;;14.47;96.82
3590;BME280;1809;48.470;9.226;2023-04-26T13:09:29;-16576.38;;;14.63;99.10
3590;BME280;1809;48.470;9.226;2023-04-26T13:11:55;-16590.53;;;15.14;91.31
3590;BME280;1809;48.470;9.226;2023-04-26T13:14:20;-16594.72;;;15.29;88.76
3590;BME280;1809;48.470;9.226;2023-04-26T13:16:47;-16591.94;;;15.19;90.21
3590;BME280;1809;48.470;9.226;2023-04-26T13:19:13;-16579.03;;;14.72;95.36
3590;BME280;1809;48.470;9.226;2023-04-26T13:21:38;-16581.84;;;14.82;94.59
3590;BME280;1809;48.470;9.226;2023-04-26T13:24:05;-16594.16;;;15.27;88.74
3590;BME280;1809;48.470;9.226;2023-04-26T13:26:30;-16601.31;;;15.52;86.03
3590;BME280;1809;48.470;9.226;2023-04-26T13:28:56;-16597.81;;;15.40;91.69